sensor_id;sensor_type;location;lat;lon;timestamp;temperature;humidity
26164;DHT22;13914;48.178;11.716;2022-11-22T00:02:24;3.00;97.70
26164;DHT22;13914;48.178;11.716;2022-11-22T00:04:50;3.00;97.70
26164;DHT22;13914;48.178;11.716;2022-11-22T00:07:16;2.90;98.00
26164;DHT22;13914;48.178;11.716;2022-11-22T00:09:41;3.00;97.70
26164;DHT22;13914;48.178;11.716;2022-11-22T00:12:07;3.00;97.70
26164;DHT22;13914;48.178;11.716;2022-11-22T00:14:33;3.00;97.70
26164;DHT22;13914;48.178;11.716;2022-11-22T00:16:58;3.00;97.70
26164;DHT22;13914;48.178;11.716;2022-11-22T00:19:24;3.00;97.70
26164;DHT22;13914;48.178;11.716;2022-11-22T00:21:50;3.00;97.70
26164;DHT22;13914;48.178;11.716;2022-11-22T00:24:15;3.00;97.70
26164;DHT22;13914;48.178;11.716;2022-11-22T00:26:41;3.00;97.80
26164;DHT22;13914;48.178;11.716;2022-11-22T00:29:07;3.00;97.70
26164;DHT22;13914;48.178;11.716;2022-11-22T00:31:35;3.00;97.70
26164;DHT22;13914;48.178;11.716;2022-11-22T00:34:01;3.00;97.70
26164;DHT22;13914;48.178;11.716;2022-11-22T00:36:27;3.00;97.70
26164;DHT22;13914;48.178;11.716;2022-11-22T00:38:52;2.90;97.80
26164;DHT22;13914;48.178;11.716;2022-11-22T00:41:18;2.90;97.80
26164;DHT22;13914;48.178;11.716;2022-11-22T00:43:44;3.00;97.80
26164;DHT22;13914;48.178;11.716;2022-11-22T00:46:09;3.00;97.80
26164;DHT22;13914;48.178;11.716;2022-11-22T00:48:35;3.00;98.20
26164;DHT22;13914;48.178;11.716;2022-11-22T00:51:01;3.00;97.80
26164;DHT22;13914;48.178;11.716;2022-11-22T00:53:26;3.00;97.70
26164;DHT22;13914;48.178;11.716;2022-11-22T00:55:55;3.00;97.80
26164;DHT22;13914;48.178;11.716;2022-11-22T00:58:20;3.00;97.70
26164;DHT22;13914;48.178;11.716;2022-11-22T01:00:48;3.00;97.80
26164;DHT22;13914;48.178;11.716;2022-11-22T01:03:14;3.00;97.70
26164;DHT22;13914;48.178;11.716;2022-11-22T01:05:40;3.00;97.70
26164;DHT22;13914;48.178;11.716;2022-11-22T01:08:06;3.00;97.70
26164;DHT22;13914;48.178;11.716;2022-11-22T01:10:34;3.00;97.70
26164;DHT22;13914;48.178;11.716;2022-11-22T01:13:00;3.00;97.80
26164;DHT22;13914;48.178;11.716;2022-11-22T01:15:26;3.00;97.70
26164;DHT22;13914;48.178;11.716;2022-11-22T01:17:52;3.00;97.80
26164;DHT22;13914;48.178;11.716;2022-11-22T01:20:17;3.00;97.80
26164;DHT22;13914;48.178;11.716;2022-11-22T01:22:46;3.00;97.80
26164;DHT22;13914;48.178;11.716;2022-11-22T01:25:12;3.00;97.80
26164;DHT22;13914;48.178;11.716;2022-11-22T01:27:37;3.00;97.80
26164;DHT22;13914;48.178;11.716;2022-11-22T01:30:03;3.00;97.80
26164;DHT22;13914;48.178;11.716;2022-11-22T01:32:29;3.00;97.80
26164;DHT22;13914;48.178;11.716;2022-11-22T01:34:55;3.00;97.80
26164;DHT22;13914;48.178;11.716;2022-11-22T01:37:20;3.00;97.80
26164;DHT22;13914;48.178;11.716;2022-11-22T01:39:46;3.00;97.80
26164;DHT22;13914;48.178;11.716;2022-11-22T01:42:12;3.00;97.70
26164;DHT22;13914;48.178;11.716;2022-11-22T01:44:41;3.00;97.80
26164;DHT22;13914;48.178;11.716;2022-11-22T01:47:17;3.00;97.70
26164;DHT22;13914;48.178;11.716;2022-11-22T01:49:47;3.00;97.80
26164;DHT22;13914;48.178;11.716;2022-11-22T01:52:18;3.00;97.80
26164;DHT22;13914;48.178;11.716;2022-11-22T01:54:46;3.00;97.80
26164;DHT22;13914;48.178;11.716;2022-11-22T01:57:15;3.00;97.70
26164;DHT22;13914;48.178;11.716;2022-11-22T01:59:47;3.10;97.80
26164;DHT22;13914;48.178;11.716;2022-11-22T02:02:16;3.10;97.80
26164;DHT22;13914;48.178;11.716;2022-11-22T02:04:42;3.10;97.80
26164;DHT22;13914;48.178;11.716;2022-11-22T02:07:13;3.10;97.80
26164;DHT22;13914;48.178;11.716;2022-11-22T02:09:43;3.10;97.70
26164;DHT22;13914;48.178;11.716;2022-11-22T02:12:09;3.10;97.70
26164;DHT22;13914;48.178;11.716;2022-11-22T02:14:35;3.10;97.80
26164;DHT22;13914;48.178;11.716;2022-11-22T02:17:02;3.10;97.80
26164;DHT22;13914;48.178;11.716;2022-11-22T02:19:33;3.10;97.80
26164;DHT22;13914;48.178;11.716;2022-11-22T02:27:39;3.10;97.80
26164;DHT22;13914;48.178;11.716;2022-11-22T02:30:05;3.10;97.80
26164;DHT22;13914;48.178;11.716;2022-11-22T02:32:31;3.10;97.80
26164;DHT22;13914;48.178;11.716;2022-11-22T02:34:57;3.20;97.80
26164;DHT22;13914;48.178;11.716;2022-11-22T02:37:27;3.20;97.90
26164;DHT22;13914;48.178;11.716;2022-11-22T02:40:04;3.20;97.90
26164;DHT22;13914;48.178;11.716;2022-11-22T02:42:32;3.20;97.90
26164;DHT22;13914;48.178;11.716;2022-11-22T02:44:59;3.20;97.80
26164;DHT22;13914;48.178;11.716;2022-11-22T02:47:25;3.20;97.80
26164;DHT22;13914;48.178;11.716;2022-11-22T02:49:53;3.20;97.90
26164;DHT22;13914;48.178;11.716;2022-11-22T02:52:19;3.20;98.00
26164;DHT22;13914;48.178;11.716;2022-11-22T02:54:45;3.20;97.90
26164;DHT22;13914;48.178;11.716;2022-11-22T02:57:12;3.20;98.00
26164;DHT22;13914;48.178;11.716;2022-11-22T02:59:38;3.20;97.80
26164;DHT22;13914;48.178;11.716;2022-11-22T03:02:04;3.20;97.90
26164;DHT22;13914;48.178;11.716;2022-11-22T03:04:29;3.20;97.80
26164;DHT22;13914;48.178;11.716;2022-11-22T03:06:56;3.30;98.00
26164;DHT22;13914;48.178;11.716;2022-11-22T03:09:23;3.30;98.00
26164;DHT22;13914;48.178;11.716;2022-11-22T03:11:50;3.30;98.00
26164;DHT22;13914;48.178;11.716;2022-11-22T03:14:16;3.30;97.90
26164;DHT22;13914;48.178;11.716;2022-11-22T03:16:42;3.30;97.90
26164;DHT22;13914;48.178;11.716;2022-11-22T03:19:09;3.30;97.90
26164;DHT22;13914;48.178;11.716;2022-11-22T03:21:35;3.40;97.90
26164;DHT22;13914;48.178;11.716;2022-11-22T03:24:02;3.40;97.90
26164;DHT22;13914;48.178;11.716;2022-11-22T03:26:27;3.40;97.90
26164;DHT22;13914;48.178;11.716;2022-11-22T03:28:53;3.40;97.90
26164;DHT22;13914;48.178;11.716;2022-11-22T03:31:19;3.40;97.80
26164;DHT22;13914;48.178;11.716;2022-11-22T03:33:45;3.50;97.90
26164;DHT22;13914;48.178;11.716;2022-11-22T03:36:10;3.50;97.90
26164;DHT22;13914;48.178;11.716;2022-11-22T03:38:36;3.50;97.90
26164;DHT22;13914;48.178;11.716;2022-11-22T03:41:02;3.50;97.90
26164;DHT22;13914;48.178;11.716;2022-11-22T03:43:27;3.50;97.90
26164;DHT22;13914;48.178;11.716;2022-11-22T03:45:55;3.50;97.90
26164;DHT22;13914;48.178;11.716;2022-11-22T03:48:21;3.50;97.90
26164;DHT22;13914;48.178;11.716;2022-11-22T03:50:47;3.60;97.90
26164;DHT22;13914;48.178;11.716;2022-11-22T03:53:12;3.60;97.90
26164;DHT22;13914;48.178;11.716;2022-11-22T03:55:39;3.50;97.90
26164;DHT22;13914;48.178;11.716;2022-11-22T03:58:05;3.60;97.90
26164;DHT22;13914;48.178;11.716;2022-11-22T04:00:34;3.60;98.00
26164;DHT22;13914;48.178;11.716;2022-11-22T04:03:00;3.60;97.90
26164;DHT22;13914;48.178;11.716;2022-11-22T04:05:26;3.60;97.90
26164;DHT22;13914;48.178;11.716;2022-11-22T04:07:52;3.60;97.90
26164;DHT22;13914;48.178;11.716;2022-11-22T04:10:21;3.70;98.00
26164;DHT22;13914;48.178;11.716;2022-11-22T04:12:50;3.70;97.90
26164;DHT22;13914;48.178;11.716;2022-11-22T04:15:16;3.70;98.20
26164;DHT22;13914;48.178;11.716;2022-11-22T04:17:43;3.70;98.30
26164;DHT22;13914;48.178;11.716;2022-11-22T04:20:11;3.70;98.20
26164;DHT22;13914;48.178;11.716;2022-11-22T04:23:14;3.80;98.10
26164;DHT22;13914;48.178;11.716;2022-11-22T04:25:47;3.80;98.00
26164;DHT22;13914;48.178;11.716;2022-11-22T04:28:20;3.80;98.00
26164;DHT22;13914;48.178;11.716;2022-11-22T04:30:48;3.80;98.40
26164;DHT22;13914;48.178;11.716;2022-11-22T04:33:34;3.90;98.00
26164;DHT22;13914;48.178;11.716;2022-11-22T04:36:00;3.90;98.00
26164;DHT22;13914;48.178;11.716;2022-11-22T04:38:25;3.90;98.00
26164;DHT22;13914;48.178;11.716;2022-11-22T04:40:51;3.90;98.10
26164;DHT22;13914;48.178;11.716;2022-11-22T04:43:19;4.00;98.10
26164;DHT22;13914;48.178;11.716;2022-11-22T04:46:07;4.00;98.70
26164;DHT22;13914;48.178;11.716;2022-11-22T04:48:33;4.10;98.40
26164;DHT22;13914;48.178;11.716;2022-11-22T04:50:59;4.10;98.40
26164;DHT22;13914;48.178;11.716;2022-11-22T04:53:44;4.20;98.20
26164;DHT22;13914;48.178;11.716;2022-11-22T04:56:10;4.20;98.20
26164;DHT22;13914;48.178;11.716;2022-11-22T04:58:36;4.20;98.20
26164;DHT22;13914;48.178;11.716;2022-11-22T05:01:02;4.20;98.10
26164;DHT22;13914;48.178;11.716;2022-11-22T05:03:28;4.20;98.10
26164;DHT22;13914;48.178;11.716;2022-11-22T05:05:53;4.30;98.10
26164;DHT22;13914;48.178;11.716;2022-11-22T05:08:19;4.30;98.10
26164;DHT22;13914;48.178;11.716;2022-11-22T05:10:46;4.30;98.10
26164;DHT22;13914;48.178;11.716;2022-11-22T05:13:55;4.40;98.50
26164;DHT22;13914;48.178;11.716;2022-11-22T05:16:13;4.40;98.00
26164;DHT22;13914;48.178;11.716;2022-11-22T05:18:42;4.40;98.10
26164;DHT22;13914;48.178;11.716;2022-11-22T05:21:12;4.50;98.10
26164;DHT22;13914;48.178;11.716;2022-11-22T05:23:38;4.50;98.00
26164;DHT22;13914;48.178;11.716;2022-11-22T05:26:19;4.50;98.00
26164;DHT22;13914;48.178;11.716;2022-11-22T05:28:55;4.50;98.00
26164;DHT22;13914;48.178;11.716;2022-11-22T05:31:24;4.50;98.00
26164;DHT22;13914;48.178;11.716;2022-11-22T05:33:52;4.60;98.00
26164;DHT22;13914;48.178;11.716;2022-11-22T05:36:19;4.60;98.00
26164;DHT22;13914;48.178;11.716;2022-11-22T05:38:45;4.60;98.00
26164;DHT22;13914;48.178;11.716;2022-11-22T05:41:12;4.60;98.00
26164;DHT22;13914;48.178;11.716;2022-11-22T05:43:39;4.60;97.90
26164;DHT22;13914;48.178;11.716;2022-11-22T05:46:05;4.60;98.00
26164;DHT22;13914;48.178;11.716;2022-11-22T05:48:36;4.70;98.00
26164;DHT22;13914;48.178;11.716;2022-11-22T05:51:03;4.70;98.00
26164;DHT22;13914;48.178;11.716;2022-11-22T05:53:32;4.70;98.30
26164;DHT22;13914;48.178;11.716;2022-11-22T05:56:18;4.80;98.00
26164;DHT22;13914;48.178;11.716;2022-11-22T05:58:46;4.80;97.90
26164;DHT22;13914;48.178;11.716;2022-11-22T06:01:18;4.80;97.90
26164;DHT22;13914;48.178;11.716;2022-11-22T06:03:45;4.80;97.90
26164;DHT22;13914;48.178;11.716;2022-11-22T06:06:11;4.80;98.00
26164;DHT22;13914;48.178;11.716;2022-11-22T06:08:39;4.80;97.90
26164;DHT22;13914;48.178;11.716;2022-11-22T06:11:13;4.80;98.00
26164;DHT22;13914;48.178;11.716;2022-11-22T06:13:40;4.90;98.00
26164;DHT22;13914;48.178;11.716;2022-11-22T06:16:08;4.90;97.90
26164;DHT22;13914;48.178;11.716;2022-11-22T06:18:34;4.90;97.90
26164;DHT22;13914;48.178;11.716;2022-11-22T06:21:01;4.90;97.90
26164;DHT22;13914;48.178;11.716;2022-11-22T06:23:29;4.90;98.00
26164;DHT22;13914;48.178;11.716;2022-11-22T06:25:58;4.90;97.90
26164;DHT22;13914;48.178;11.716;2022-11-22T06:28:25;4.90;97.90
26164;DHT22;13914;48.178;11.716;2022-11-22T06:30:51;5.00;97.90
26164;DHT22;13914;48.178;11.716;2022-11-22T06:33:17;5.00;97.90
26164;DHT22;13914;48.178;11.716;2022-11-22T06:35:43;5.00;97.90
26164;DHT22;13914;48.178;11.716;2022-11-22T06:38:08;5.00;98.00
26164;DHT22;13914;48.178;11.716;2022-11-22T06:40:34;5.00;97.90
26164;DHT22;13914;48.178;11.716;2022-11-22T06:43:02;5.00;97.90
26164;DHT22;13914;48.178;11.716;2022-11-22T06:45:28;5.00;97.90
26164;DHT22;13914;48.178;11.716;2022-11-22T06:47:54;5.00;98.00
26164;DHT22;13914;48.178;11.716;2022-11-22T06:50:22;5.10;97.90
26164;DHT22;13914;48.178;11.716;2022-11-22T06:52:51;5.10;97.90
26164;DHT22;13914;48.178;11.716;2022-11-22T06:55:17;5.10;97.90
26164;DHT22;13914;48.178;11.716;2022-11-22T06:57:42;5.10;97.90
26164;DHT22;13914;48.178;11.716;2022-11-22T07:00:08;5.10;97.90
26164;DHT22;13914;48.178;11.716;2022-11-22T07:02:34;5.10;97.90
26164;DHT22;13914;48.178;11.716;2022-11-22T07:05:00;5.10;97.90
26164;DHT22;13914;48.178;11.716;2022-11-22T07:07:26;5.10;97.90
26164;DHT22;13914;48.178;11.716;2022-11-22T07:09:54;5.20;98.00
26164;DHT22;13914;48.178;11.716;2022-11-22T07:12:20;5.20;98.00
26164;DHT22;13914;48.178;11.716;2022-11-22T07:14:46;5.20;97.90
26164;DHT22;13914;48.178;11.716;2022-11-22T07:17:11;5.20;98.00
26164;DHT22;13914;48.178;11.716;2022-11-22T07:19:37;5.20;98.00
26164;DHT22;13914;48.178;11.716;2022-11-22T07:22:02;5.20;98.00
26164;DHT22;13914;48.178;11.716;2022-11-22T07:24:28;5.30;98.00
26164;DHT22;13914;48.178;11.716;2022-11-22T07:26:54;5.30;97.90
26164;DHT22;13914;48.178;11.716;2022-11-22T07:29:20;5.30;97.90
26164;DHT22;13914;48.178;11.716;2022-11-22T07:31:46;5.30;98.00
26164;DHT22;13914;48.178;11.716;2022-11-22T07:34:11;5.30;97.90
26164;DHT22;13914;48.178;11.716;2022-11-22T07:36:37;5.30;97.90
26164;DHT22;13914;48.178;11.716;2022-11-22T07:39:03;5.30;97.90
26164;DHT22;13914;48.178;11.716;2022-11-22T07:41:28;5.30;98.00
26164;DHT22;13914;48.178;11.716;2022-11-22T07:43:54;5.30;98.00
26164;DHT22;13914;48.178;11.716;2022-11-22T07:46:24;5.40;98.00
26164;DHT22;13914;48.178;11.716;2022-11-22T07:48:57;5.40;98.10
26164;DHT22;13914;48.178;11.716;2022-11-22T07:51:24;5.40;98.00
26164;DHT22;13914;48.178;11.716;2022-11-22T07:53:50;5.40;98.00
26164;DHT22;13914;48.178;11.716;2022-11-22T07:56:16;5.40;98.10
26164;DHT22;13914;48.178;11.716;2022-11-22T07:58:42;5.40;98.10
26164;DHT22;13914;48.178;11.716;2022-11-22T08:01:09;5.50;98.10
26164;DHT22;13914;48.178;11.716;2022-11-22T08:03:36;5.40;98.00
26164;DHT22;13914;48.178;11.716;2022-11-22T08:06:02;5.40;98.10
26164;DHT22;13914;48.178;11.716;2022-11-22T08:08:30;5.50;98.10
26164;DHT22;13914;48.178;11.716;2022-11-22T08:10:55;5.50;98.20
26164;DHT22;13914;48.178;11.716;2022-11-22T08:13:21;5.50;98.10
26164;DHT22;13914;48.178;11.716;2022-11-22T08:15:47;5.50;98.10
26164;DHT22;13914;48.178;11.716;2022-11-22T08:18:14;5.50;98.10
26164;DHT22;13914;48.178;11.716;2022-11-22T08:20:40;5.50;98.10
26164;DHT22;13914;48.178;11.716;2022-11-22T08:23:05;5.50;98.10
26164;DHT22;13914;48.178;11.716;2022-11-22T08:25:31;5.50;98.20
26164;DHT22;13914;48.178;11.716;2022-11-22T08:27:57;5.50;98.40
26164;DHT22;13914;48.178;11.716;2022-11-22T08:30:22;5.50;98.40
26164;DHT22;13914;48.178;11.716;2022-11-22T08:32:48;5.60;98.30
26164;DHT22;13914;48.178;11.716;2022-11-22T08:35:15;5.60;98.30
26164;DHT22;13914;48.178;11.716;2022-11-22T08:37:41;5.60;98.30
26164;DHT22;13914;48.178;11.716;2022-11-22T08:40:07;5.60;98.50
26164;DHT22;13914;48.178;11.716;2022-11-22T08:42:33;5.60;98.30
26164;DHT22;13914;48.178;11.716;2022-11-22T08:44:59;5.60;98.40
26164;DHT22;13914;48.178;11.716;2022-11-22T08:47:25;5.70;98.50
26164;DHT22;13914;48.178;11.716;2022-11-22T08:49:50;5.70;98.60
26164;DHT22;13914;48.178;11.716;2022-11-22T08:52:16;5.70;98.50
26164;DHT22;13914;48.178;11.716;2022-11-22T08:54:42;5.70;98.80
26164;DHT22;13914;48.178;11.716;2022-11-22T08:57:07;5.70;98.80
26164;DHT22;13914;48.178;11.716;2022-11-22T08:59:33;5.70;98.70
26164;DHT22;13914;48.178;11.716;2022-11-22T09:01:59;5.80;98.80
26164;DHT22;13914;48.178;11.716;2022-11-22T09:04:25;5.80;98.40
26164;DHT22;13914;48.178;11.716;2022-11-22T09:06:50;5.80;98.70
26164;DHT22;13914;48.178;11.716;2022-11-22T09:09:16;5.90;98.80
26164;DHT22;13914;48.178;11.716;2022-11-22T09:11:42;5.80;98.60
26164;DHT22;13914;48.178;11.716;2022-11-22T09:14:07;5.80;98.40
26164;DHT22;13914;48.178;11.716;2022-11-22T09:16:33;5.80;98.80
26164;DHT22;13914;48.178;11.716;2022-11-22T09:18:59;5.90;98.90
26164;DHT22;13914;48.178;11.716;2022-11-22T09:21:25;5.90;98.50
26164;DHT22;13914;48.178;11.716;2022-11-22T09:23:50;5.90;98.50
26164;DHT22;13914;48.178;11.716;2022-11-22T09:26:19;5.90;98.70
26164;DHT22;13914;48.178;11.716;2022-11-22T09:28:46;5.90;98.80
26164;DHT22;13914;48.178;11.716;2022-11-22T09:31:13;5.90;98.60
26164;DHT22;13914;48.178;11.716;2022-11-22T09:33:44;6.00;98.90
26164;DHT22;13914;48.178;11.716;2022-11-22T09:36:13;6.00;99.20
26164;DHT22;13914;48.178;11.716;2022-11-22T09:38:43;6.00;98.60
26164;DHT22;13914;48.178;11.716;2022-11-22T09:43:43;6.10;98.90
26164;DHT22;13914;48.178;11.716;2022-11-22T09:46:38;6.10;98.70
26164;DHT22;13914;48.178;11.716;2022-11-22T09:49:24;6.10;98.60
26164;DHT22;13914;48.178;11.716;2022-11-22T09:51:58;6.10;98.70
26164;DHT22;13914;48.178;11.716;2022-11-22T09:54:30;6.20;98.90
26164;DHT22;13914;48.178;11.716;2022-11-22T09:57:02;6.20;98.90
26164;DHT22;13914;48.178;11.716;2022-11-22T09:59:30;6.20;98.70
26164;DHT22;13914;48.178;11.716;2022-11-22T10:02:06;6.20;98.80
26164;DHT22;13914;48.178;11.716;2022-11-22T10:04:42;6.20;98.70
26164;DHT22;13914;48.178;11.716;2022-11-22T10:07:27;6.20;98.50
26164;DHT22;13914;48.178;11.716;2022-11-22T10:20:26;6.40;98.40
26164;DHT22;13914;48.178;11.716;2022-11-22T10:22:53;6.40;98.60
26164;DHT22;13914;48.178;11.716;2022-11-22T10:25:39;6.40;98.40
26164;DHT22;13914;48.178;11.716;2022-11-22T10:28:19;6.40;98.40
26164;DHT22;13914;48.178;11.716;2022-11-22T10:33:27;6.40;98.30
26164;DHT22;13914;48.178;11.716;2022-11-22T10:44:26;6.50;98.30
26164;DHT22;13914;48.178;11.716;2022-11-22T10:49:59;6.50;98.30
26164;DHT22;13914;48.178;11.716;2022-11-22T11:00:38;6.50;98.30
26164;DHT22;13914;48.178;11.716;2022-11-22T11:03:09;6.50;98.30
26164;DHT22;13914;48.178;11.716;2022-11-22T11:05:58;6.60;98.30
26164;DHT22;13914;48.178;11.716;2022-11-22T11:08:51;6.60;98.30
26164;DHT22;13914;48.178;11.716;2022-11-22T11:11:20;6.60;98.20
26164;DHT22;13914;48.178;11.716;2022-11-22T11:14:01;6.60;98.30
26164;DHT22;13914;48.178;11.716;2022-11-22T11:16:31;6.60;98.20
26164;DHT22;13914;48.178;11.716;2022-11-22T11:19:07;6.60;98.20
26164;DHT22;13914;48.178;11.716;2022-11-22T11:21:38;6.70;98.20
26164;DHT22;13914;48.178;11.716;2022-11-22T11:24:13;6.60;98.20
26164;DHT22;13914;48.178;11.716;2022-11-22T11:26:41;6.70;98.20
26164;DHT22;13914;48.178;11.716;2022-11-22T11:31:42;6.70;98.20
26164;DHT22;13914;48.178;11.716;2022-11-22T11:34:20;6.70;98.20
26164;DHT22;13914;48.178;11.716;2022-11-22T11:36:48;6.70;98.20
26164;DHT22;13914;48.178;11.716;2022-11-22T11:39:21;6.80;98.20
26164;DHT22;13914;48.178;11.716;2022-11-22T11:47:49;6.80;98.20
26164;DHT22;13914;48.178;11.716;2022-11-22T11:50:18;6.80;98.20
26164;DHT22;13914;48.178;11.716;2022-11-22T11:52:56;6.80;98.20
26164;DHT22;13914;48.178;11.716;2022-11-22T11:55:34;6.90;98.10
26164;DHT22;13914;48.178;11.716;2022-11-22T11:58:01;6.90;98.10
26164;DHT22;13914;48.178;11.716;2022-11-22T12:00:34;6.90;98.20
26164;DHT22;13914;48.178;11.716;2022-11-22T12:03:04;6.90;98.20
26164;DHT22;13914;48.178;11.716;2022-11-22T12:05:32;6.90;98.20
26164;DHT22;13914;48.178;11.716;2022-11-22T12:07:59;7.00;98.20
26164;DHT22;13914;48.178;11.716;2022-11-22T12:13:08;6.90;98.20
26164;DHT22;13914;48.178;11.716;2022-11-22T12:15:49;6.90;98.10
26164;DHT22;13914;48.178;11.716;2022-11-22T12:24:23;7.00;98.10
26164;DHT22;13914;48.178;11.716;2022-11-22T12:26:50;7.00;98.20
26164;DHT22;13914;48.178;11.716;2022-11-22T12:29:16;7.00;98.10
26164;DHT22;13914;48.178;11.716;2022-11-22T12:31:51;7.00;98.10
26164;DHT22;13914;48.178;11.716;2022-11-22T12:34:30;7.00;98.10
26164;DHT22;13914;48.178;11.716;2022-11-22T12:37:05;7.00;98.10
26164;DHT22;13914;48.178;11.716;2022-11-22T12:39:35;7.00;98.10
26164;DHT22;13914;48.178;11.716;2022-11-22T12:42:03;7.10;98.20
26164;DHT22;13914;48.178;11.716;2022-11-22T12:44:36;7.00;98.20
26164;DHT22;13914;48.178;11.716;2022-11-22T12:47:06;7.00;98.10
26164;DHT22;13914;48.178;11.716;2022-11-22T12:49:39;7.00;98.20
26164;DHT22;13914;48.178;11.716;2022-11-22T12:52:21;7.00;98.10
26164;DHT22;13914;48.178;11.716;2022-11-22T12:54:58;7.00;98.10
26164;DHT22;13914;48.178;11.716;2022-11-22T12:57:49;7.00;98.10
26164;DHT22;13914;48.178;11.716;2022-11-22T13:00:20;7.00;98.10
26164;DHT22;13914;48.178;11.716;2022-11-22T13:05:47;7.10;98.20
26164;DHT22;13914;48.178;11.716;2022-11-22T13:13:47;7.00;98.10
26164;DHT22;13914;48.178;11.716;2022-11-22T13:16:15;7.00;98.10
26164;DHT22;13914;48.178;11.716;2022-11-22T13:18:43;7.00;98.10
26164;DHT22;13914;48.178;11.716;2022-11-22T13:29:23;7.00;98.10
26164;DHT22;13914;48.178;11.716;2022-11-22T13:34:30;7.10;98.20
26164;DHT22;13914;48.178;11.716;2022-11-22T13:37:04;7.10;98.10
26164;DHT22;13914;48.178;11.716;2022-11-22T13:39:36;7.10;98.20
26164;DHT22;13914;48.178;11.716;2022-11-22T13:42:05;7.10;98.10
26164;DHT22;13914;48.178;11.716;2022-11-22T13:46:57;7.10;98.20
26164;DHT22;13914;48.178;11.716;2022-11-22T13:49:37;7.10;98.20
26164;DHT22;13914;48.178;11.716;2022-11-22T13:52:26;7.00;98.20
26164;DHT22;13914;48.178;11.716;2022-11-22T14:02:36;7.00;98.30
26164;DHT22;13914;48.178;11.716;2022-11-22T14:05:11;7.00;98.20
26164;DHT22;13914;48.178;11.716;2022-11-22T14:07:42;7.00;98.20
26164;DHT22;13914;48.178;11.716;2022-11-22T14:27:26;7.00;98.30
26164;DHT22;13914;48.178;11.716;2022-11-22T14:30:18;6.90;98.30
26164;DHT22;13914;48.178;11.716;2022-11-22T14:32:51;7.00;98.30
26164;DHT22;13914;48.178;11.716;2022-11-22T14:38:30;6.90;98.20
26164;DHT22;13914;48.178;11.716;2022-11-22T14:40:52;6.90;98.00
26164;DHT22;13914;48.178;11.716;2022-11-22T14:44:14;6.90;98.20
26164;DHT22;13914;48.178;11.716;2022-11-22T14:46:50;6.90;98.20
26164;DHT22;13914;48.178;11.716;2022-11-22T14:49:39;6.90;98.20
26164;DHT22;13914;48.178;11.716;2022-11-22T14:52:17;6.90;98.20
26164;DHT22;13914;48.178;11.716;2022-11-22T14:54:46;6.90;98.20
26164;DHT22;13914;48.178;11.716;2022-11-22T14:57:20;6.90;98.20
26164;DHT22;13914;48.178;11.716;2022-11-22T15:11:07;6.80;98.20
26164;DHT22;13914;48.178;11.716;2022-11-22T15:14:08;6.80;98.20
26164;DHT22;13914;48.178;11.716;2022-11-22T15:16:56;6.80;98.30
26164;DHT22;13914;48.178;11.716;2022-11-22T15:19:34;6.80;98.30
26164;DHT22;13914;48.178;11.716;2022-11-22T15:22:10;6.70;98.30
26164;DHT22;13914;48.178;11.716;2022-11-22T15:24:49;6.70;98.30
26164;DHT22;13914;48.178;11.716;2022-11-22T15:27:29;6.70;98.30
26164;DHT22;13914;48.178;11.716;2022-11-22T15:30:06;6.70;98.30
26164;DHT22;13914;48.178;11.716;2022-11-22T15:32:46;6.70;98.30
26164;DHT22;13914;48.178;11.716;2022-11-22T15:35:16;6.60;98.30
26164;DHT22;13914;48.178;11.716;2022-11-22T15:38:06;6.60;98.30
26164;DHT22;13914;48.178;11.716;2022-11-22T15:40:37;6.60;98.30
26164;DHT22;13914;48.178;11.716;2022-11-22T15:43:04;6.60;98.30
26164;DHT22;13914;48.178;11.716;2022-11-22T15:45:37;6.60;98.30
26164;DHT22;13914;48.178;11.716;2022-11-22T15:48:08;6.60;98.30
26164;DHT22;13914;48.178;11.716;2022-11-22T15:50:38;6.60;98.30
26164;DHT22;13914;48.178;11.716;2022-11-22T15:53:22;6.60;98.30
26164;DHT22;13914;48.178;11.716;2022-11-22T15:56:02;6.60;98.30
26164;DHT22;13914;48.178;11.716;2022-11-22T15:58:38;6.50;98.20
26164;DHT22;13914;48.178;11.716;2022-11-22T16:01:11;6.50;98.20
26164;DHT22;13914;48.178;11.716;2022-11-22T16:03:39;6.60;98.20
26164;DHT22;13914;48.178;11.716;2022-11-22T16:06:09;6.50;98.20
26164;DHT22;13914;48.178;11.716;2022-11-22T16:08:38;6.50;98.20
26164;DHT22;13914;48.178;11.716;2022-11-22T16:11:17;6.50;98.30
26164;DHT22;13914;48.178;11.716;2022-11-22T16:13:44;6.50;98.30
26164;DHT22;13914;48.178;11.716;2022-11-22T16:18:39;6.40;98.20
26164;DHT22;13914;48.178;11.716;2022-11-22T16:23:34;6.40;98.30
26164;DHT22;13914;48.178;11.716;2022-11-22T16:28:54;6.40;98.30
26164;DHT22;13914;48.178;11.716;2022-11-22T16:33:51;6.40;98.30
26164;DHT22;13914;48.178;11.716;2022-11-22T16:36:18;6.30;98.20
26164;DHT22;13914;48.178;11.716;2022-11-22T16:38:45;6.30;98.30
26164;DHT22;13914;48.178;11.716;2022-11-22T16:41:12;6.30;98.30
26164;DHT22;13914;48.178;11.716;2022-11-22T16:43:42;6.30;98.20
26164;DHT22;13914;48.178;11.716;2022-11-22T16:46:11;6.30;98.20
26164;DHT22;13914;48.178;11.716;2022-11-22T16:48:37;6.30;98.30
26164;DHT22;13914;48.178;11.716;2022-11-22T16:51:04;6.20;98.20
26164;DHT22;13914;48.178;11.716;2022-11-22T16:53:36;6.20;98.20
26164;DHT22;13914;48.178;11.716;2022-11-22T16:56:04;6.20;98.30
26164;DHT22;13914;48.178;11.716;2022-11-22T16:58:30;6.20;98.30
26164;DHT22;13914;48.178;11.716;2022-11-22T17:00:56;6.20;98.30
26164;DHT22;13914;48.178;11.716;2022-11-22T17:03:22;6.20;98.30
26164;DHT22;13914;48.178;11.716;2022-11-22T17:05:50;6.10;98.30
26164;DHT22;13914;48.178;11.716;2022-11-22T17:08:17;6.10;98.40
26164;DHT22;13914;48.178;11.716;2022-11-22T17:10:47;6.10;98.30
26164;DHT22;13914;48.178;11.716;2022-11-22T17:13:24;6.10;98.30
26164;DHT22;13914;48.178;11.716;2022-11-22T17:15:51;6.10;98.40
26164;DHT22;13914;48.178;11.716;2022-11-22T17:18:18;6.10;98.40
26164;DHT22;13914;48.178;11.716;2022-11-22T17:20:44;6.00;98.30
26164;DHT22;13914;48.178;11.716;2022-11-22T17:23:25;6.00;98.30
26164;DHT22;13914;48.178;11.716;2022-11-22T17:25:52;6.00;98.50
26164;DHT22;13914;48.178;11.716;2022-11-22T17:28:18;6.00;98.40
26164;DHT22;13914;48.178;11.716;2022-11-22T17:30:43;6.00;98.50
26164;DHT22;13914;48.178;11.716;2022-11-22T17:33:09;6.00;98.50
26164;DHT22;13914;48.178;11.716;2022-11-22T17:35:36;5.90;98.50
26164;DHT22;13914;48.178;11.716;2022-11-22T17:38:03;5.90;98.40
26164;DHT22;13914;48.178;11.716;2022-11-22T17:40:29;6.00;98.50
26164;DHT22;13914;48.178;11.716;2022-11-22T17:42:55;5.90;98.50
26164;DHT22;13914;48.178;11.716;2022-11-22T17:45:21;5.90;98.50
26164;DHT22;13914;48.178;11.716;2022-11-22T17:47:47;5.90;98.50
26164;DHT22;13914;48.178;11.716;2022-11-22T17:50:13;5.90;98.50
26164;DHT22;13914;48.178;11.716;2022-11-22T17:52:39;5.90;98.50
26164;DHT22;13914;48.178;11.716;2022-11-22T17:55:05;5.80;98.60